sensor_id;sensor_type;location;lat;lon;timestamp;pressure;altitude;pressure_sealevel;temperature;humidity
25722;BME280;13578;53.450;15.496;2023-07-22T00:01:44;99222.63;;;13.35;100.00
25722;BME280;13578;53.450;15.496;2023-07-22T00:04:44;99217.81;;;13.29;100.00
25722;BME280;13578;53.450;15.496;2023-07-22T00:07:45;99213.13;;;13.21;100.00
25722;BME280;13578;53.450;15.496;2023-07-22T00:10:45;99215.72;;;13.23;100.00
25722;BME280;13578;53.450;15.496;2023-07-22T00:13:46;99223.94;;;13.14;100.00
25722;BME280;13578;53.450;15.496;2023-07-22T00:16:46;99207.44;;;13.06;100.00
25722;BME280;13578;53.450;15.496;2023-07-22T00:19:48;99213.63;;;13.08;100.00
25722;BME280;13578;53.450;15.496;2023-07-22T00:22:48;99209.13;;;13.07;100.00
25722;BME280;13578;53.450;15.496;2023-07-22T00:25:50;99207.97;;;13.10;100.00
25722;BME280;13578;53.450;15.496;2023-07-22T00:28:51;99204.66;;;13.14;100.00
25722;BME280;13578;53.450;15.496;2023-07-22T00:31:52;99188.13;;;13.14;100.00
25722;BME280;13578;53.450;15.496;2023-07-22T00:34:53;99186.78;;;13.18;100.00
25722;BME280;13578;53.450;15.496;2023-07-22T00:37:54;99178.31;;;13.12;100.00
25722;BME280;13578;53.450;15.496;2023-07-22T00:40:54;99178.84;;;13.15;100.00
25722;BME280;13578;53.450;15.496;2023-07-22T00:43:55;99178.19;;;13.13;100.00
25722;BME280;13578;53.450;15.496;2023-07-22T00:46:56;99178.19;;;13.13;100.00
25722;BME280;13578;53.450;15.496;2023-07-22T00:50:00;99169.75;;;13.15;100.00
25722;BME280;13578;53.450;15.496;2023-07-22T00:53:02;99165.78;;;13.26;100.00
25722;BME280;13578;53.450;15.496;2023-07-22T00:56:03;99149.94;;;13.28;100.00
25722;BME280;13578;53.450;15.496;2023-07-22T00:59:04;99153.41;;;13.38;100.00
25722;BME280;13578;53.450;15.496;2023-07-22T01:02:06;99139.78;;;13.37;100.00
25722;BME280;13578;53.450;15.496;2023-07-22T01:05:07;99134.31;;;13.45;100.00
25722;BME280;13578;53.450;15.496;2023-07-22T01:08:10;99126.22;;;13.43;100.00
25722;BME280;13578;53.450;15.496;2023-07-22T01:11:11;99128.59;;;13.46;100.00
25722;BME280;13578;53.450;15.496;2023-07-22T01:14:13;99126.38;;;13.42;100.00
25722;BME280;13578;53.450;15.496;2023-07-22T01:17:13;99121.03;;;13.40;100.00
25722;BME280;13578;53.450;15.496;2023-07-22T01:20:15;99122.94;;;13.40;100.00
25722;BME280;13578;53.450;15.496;2023-07-22T01:23:16;99131.38;;;13.38;100.00
25722;BME280;13578;53.450;15.496;2023-07-22T01:26:17;99127.72;;;13.38;100.00
25722;BME280;13578;53.450;15.496;2023-07-22T01:29:17;99134.78;;;13.32;100.00
25722;BME280;13578;53.450;15.496;2023-07-22T01:32:18;99132.22;;;13.30;100.00
25722;BME280;13578;53.450;15.496;2023-07-22T01:35:20;99138.75;;;13.29;100.00
25722;BME280;13578;53.450;15.496;2023-07-22T01:38:21;99121.88;;;13.24;100.00
25722;BME280;13578;53.450;15.496;2023-07-22T01:41:21;99118.94;;;13.26;100.00
25722;BME280;13578;53.450;15.496;2023-07-22T01:44:22;99130.81;;;13.26;100.00
25722;BME280;13578;53.450;15.496;2023-07-22T01:47:23;99127.41;;;13.24;100.00
25722;BME280;13578;53.450;15.496;2023-07-22T01:50:23;99130.47;;;13.21;100.00
25722;BME280;13578;53.450;15.496;2023-07-22T01:53:24;99109.97;;;13.15;100.00
25722;BME280;13578;53.450;15.496;2023-07-22T01:56:24;99124.13;;;13.12;100.00
25722;BME280;13578;53.450;15.496;2023-07-22T01:59:25;99113.25;;;13.11;100.00
25722;BME280;13578;53.450;15.496;2023-07-22T02:02:26;99116.19;;;13.17;100.00
25722;BME280;13578;53.450;15.496;2023-07-22T02:05:27;99113.09;;;13.21;100.00
25722;BME280;13578;53.450;15.496;2023-07-22T02:08:30;99122.91;;;13.23;100.00
25722;BME280;13578;53.450;15.496;2023-07-22T02:11:31;99125.84;;;13.13;100.00
25722;BME280;13578;53.450;15.496;2023-07-22T02:14:32;99118.75;;;13.35;100.00
25722;BME280;13578;53.450;15.496;2023-07-22T02:17:32;99117.56;;;13.30;100.00
25722;BME280;13578;53.450;15.496;2023-07-22T02:20:34;99110.19;;;13.47;100.00
25722;BME280;13578;53.450;15.496;2023-07-22T02:23:34;99115.72;;;13.47;100.00
25722;BME280;13578;53.450;15.496;2023-07-22T02:26:35;99109.50;;;13.53;100.00
25722;BME280;13578;53.450;15.496;2023-07-22T02:29:36;99104.50;;;13.40;100.00
25722;BME280;13578;53.450;15.496;2023-07-22T02:32:38;99094.16;;;13.34;100.00
25722;BME280;13578;53.450;15.496;2023-07-22T02:35:41;99099.69;;;13.42;100.00
25722;BME280;13578;53.450;15.496;2023-07-22T02:38:42;99093.13;;;13.27;100.00
25722;BME280;13578;53.450;15.496;2023-07-22T02:41:42;99088.47;;;13.27;100.00
25722;BME280;13578;53.450;15.496;2023-07-22T02:44:43;99088.97;;;13.31;100.00
25722;BME280;13578;53.450;15.496;2023-07-22T02:47:43;99091.91;;;13.29;100.00
25722;BME280;13578;53.450;15.496;2023-07-22T02:50:44;99085.69;;;13.35;100.00
25722;BME280;13578;53.450;15.496;2023-07-22T02:53:46;99097.59;;;13.36;100.00
25722;BME280;13578;53.450;15.496;2023-07-22T02:56:47;99087.25;;;13.30;100.00
25722;BME280;13578;53.450;15.496;2023-07-22T02:59:47;99086.22;;;13.23;100.00
25722;BME280;13578;53.450;15.496;2023-07-22T03:02:49;99094.66;;;13.21;100.00
25722;BME280;13578;53.450;15.496;2023-07-22T03:05:51;99087.63;;;13.18;100.00
25722;BME280;13578;53.450;15.496;2023-07-22T03:08:52;99092.59;;;13.15;100.00
25722;BME280;13578;53.450;15.496;2023-07-22T03:11:54;99083.81;;;13.11;100.00
25722;BME280;13578;53.450;15.496;2023-07-22T03:14:57;99081.91;;;13.12;100.00
25722;BME280;13578;53.450;15.496;2023-07-22T03:17:57;99091.91;;;13.13;100.00
25722;BME280;13578;53.450;15.496;2023-07-22T03:20:59;99097.22;;;13.14;100.00
25722;BME280;13578;53.450;15.496;2023-07-22T03:24:00;99094.66;;;13.21;100.00
25722;BME280;13578;53.450;15.496;2023-07-22T03:27:01;99085.88;;;13.26;100.00
25722;BME280;13578;53.450;15.496;2023-07-22T03:30:02;99087.09;;;13.31;100.00
25722;BME280;13578;53.450;15.496;2023-07-22T03:33:03;99093.66;;;13.39;100.00
25722;BME280;13578;53.450;15.496;2023-07-22T03:36:04;99107.94;;;13.50;100.00
25722;BME280;13578;53.450;15.496;2023-07-22T03:39:05;99114.63;;;13.56;100.00
25722;BME280;13578;53.450;15.496;2023-07-22T03:42:06;99131.34;;;13.63;100.00
25722;BME280;13578;53.450;15.496;2023-07-22T03:45:08;99116.16;;;13.67;100.00
25722;BME280;13578;53.450;15.496;2023-07-22T03:48:10;99128.50;;;13.96;100.00
25722;BME280;13578;53.450;15.496;2023-07-22T03:51:11;99131.53;;;14.18;100.00
25722;BME280;13578;53.450;15.496;2023-07-22T03:54:11;99130.03;;;14.46;100.00
25722;BME280;13578;53.450;15.496;2023-07-22T03:57:12;99151.44;;;14.53;100.00
25722;BME280;13578;53.450;15.496;2023-07-22T04:00:13;99159.38;;;14.48;100.00
25722;BME280;13578;53.450;15.496;2023-07-22T04:03:14;99157.50;;;14.48;100.00
25722;BME280;13578;53.450;15.496;2023-07-22T04:06:14;99161.13;;;14.40;100.00
25722;BME280;13578;53.450;15.496;2023-07-22T04:09:15;99166.66;;;14.32;100.00
25722;BME280;13578;53.450;15.496;2023-07-22T04:12:16;99159.50;;;14.23;100.00
25722;BME280;13578;53.450;15.496;2023-07-22T04:15:17;99158.47;;;14.16;100.00
25722;BME280;13578;53.450;15.496;2023-07-22T04:18:18;99147.81;;;14.04;100.00
25722;BME280;13578;53.450;15.496;2023-07-22T04:21:19;99141.63;;;14.02;100.00
25722;BME280;13578;53.450;15.496;2023-07-22T04:24:20;99139.16;;;14.16;100.00
25722;BME280;13578;53.450;15.496;2023-07-22T04:27:21;99154.97;;;14.30;100.00
25722;BME280;13578;53.450;15.496;2023-07-22T04:30:21;99161.38;;;14.22;100.00
25722;BME280;13578;53.450;15.496;2023-07-22T04:33:22;99160.56;;;14.05;100.00
25722;BME280;13578;53.450;15.496;2023-07-22T04:36:23;99155.75;;;13.99;100.00
25722;BME280;13578;53.450;15.496;2023-07-22T04:39:23;99159.91;;;13.95;100.00
25722;BME280;13578;53.450;15.496;2023-07-22T04:42:24;99136.28;;;13.84;100.00
25722;BME280;13578;53.450;15.496;2023-07-22T04:45:26;99133.06;;;13.72;100.00
25722;BME280;13578;53.450;15.496;2023-07-22T04:48:26;99130.44;;;13.79;100.00
25722;BME280;13578;53.450;15.496;2023-07-22T04:51:27;99128.06;;;13.76;100.00
25722;BME280;13578;53.450;15.496;2023-07-22T04:54:27;99127.56;;;13.72;100.00
25722;BME280;13578;53.450;15.496;2023-07-22T04:57:28;99127.38;;;13.65;100.00
25722;BME280;13578;53.450;15.496;2023-07-22T05:00:29;99119.81;;;13.59;100.00
25722;BME280;13578;53.450;15.496;2023-07-22T05:03:29;99131.03;;;13.58;100.00
25722;BME280;13578;53.450;15.496;2023-07-22T05:06:30;99126.88;;;13.54;100.00
25722;BME280;13578;53.450;15.496;2023-07-22T05:09:34;99128.59;;;13.55;100.00
25722;BME280;13578;53.450;15.496;2023-07-22T05:12:34;99138.94;;;13.53;100.00
25722;BME280;13578;53.450;15.496;2023-07-22T05:15:35;99132.56;;;13.52;100.00
25722;BME280;13578;53.450;15.496;2023-07-22T05:18:35;99135.50;;;13.50;100.00
25722;BME280;13578;53.450;15.496;2023-07-22T05:21:37;99134.81;;;13.48;100.00
25722;BME280;13578;53.450;15.496;2023-07-22T05:24:38;99122.75;;;13.49;100.00
25722;BME280;13578;53.450;15.496;2023-07-22T05:27:40;99124.13;;;13.45;100.00
25722;BME280;13578;53.450;15.496;2023-07-22T05:30:41;99127.56;;;13.39;100.00
25722;BME280;13578;53.450;15.496;2023-07-22T05:33:41;99128.47;;;13.40;100.00
25722;BME280;13578;53.450;15.496;2023-07-22T05:36:42;99131.38;;;13.38;100.00
25722;BME280;13578;53.450;15.496;2023-07-22T05:39:43;99114.47;;;13.33;100.00
25722;BME280;13578;53.450;15.496;2023-07-22T05:42:43;99123.25;;;13.37;100.00
25722;BME280;13578;53.450;15.496;2023-07-22T05:45:44;99129.59;;;13.37;100.00
25722;BME280;13578;53.450;15.496;2023-07-22T05:48:45;99128.94;;;13.35;100.00
25722;BME280;13578;53.450;15.496;2023-07-22T05:51:45;99129.59;;;13.37;100.00
25722;BME280;13578;53.450;15.496;2023-07-22T05:54:46;99126.88;;;13.45;100.00
25722;BME280;13578;53.450;15.496;2023-07-22T05:57:46;99135.16;;;13.45;100.00
25722;BME280;13578;53.450;15.496;2023-07-22T06:00:47;99143.41;;;13.54;100.00
25722;BME280;13578;53.450;15.496;2023-07-22T06:03:48;99152.38;;;13.47;100.00
25722;BME280;13578;53.450;15.496;2023-07-22T06:06:48;99164.78;;;13.52;100.00
25722;BME280;13578;53.450;15.496;2023-07-22T06:09:49;99182.53;;;13.49;100.00
25722;BME280;13578;53.450;15.496;2023-07-22T06:12:50;99183.41;;;13.49;100.00
25722;BME280;13578;53.450;15.496;2023-07-22T06:15:50;99181.69;;;13.57;100.00
25722;BME280;13578;53.450;15.496;2023-07-22T06:18:51;99193.03;;;13.62;100.00
25722;BME280;13578;53.450;15.496;2023-07-22T06:21:51;99195.09;;;13.68;100.00
25722;BME280;13578;53.450;15.496;2023-07-22T06:24:52;99197.84;;;13.76;100.00
25722;BME280;13578;53.450;15.496;2023-07-22T06:27:53;99220.44;;;13.72;100.00
25722;BME280;13578;53.450;15.496;2023-07-22T06:30:57;99215.94;;;13.79;100.00
25722;BME280;13578;53.450;15.496;2023-07-22T06:33:58;99225.59;;;13.91;100.00
25722;BME280;13578;53.450;15.496;2023-07-22T06:36:59;99227.28;;;13.92;100.00
25722;BME280;13578;53.450;15.496;2023-07-22T06:40:00;99242.09;;;14.16;100.00
25722;BME280;13578;53.450;15.496;2023-07-22T06:43:02;99248.41;;;14.41;100.00
25722;BME280;13578;53.450;15.496;2023-07-22T06:46:02;99265.13;;;14.56;100.00
25722;BME280;13578;53.450;15.496;2023-07-22T06:49:03;99288.78;;;14.67;100.00
25722;BME280;13578;53.450;15.496;2023-07-22T06:52:04;99300.47;;;14.69;100.00
25722;BME280;13578;53.450;15.496;2023-07-22T06:55:05;99324.16;;;14.72;100.00
25722;BME280;13578;53.450;15.496;2023-07-22T06:58:06;99327.56;;;14.74;100.00
25722;BME280;13578;53.450;15.496;2023-07-22T07:01:06;99332.16;;;14.98;100.00
25722;BME280;13578;53.450;15.496;2023-07-22T07:04:07;99337.66;;;14.98;100.00
25722;BME280;13578;53.450;15.496;2023-07-22T07:07:07;99341.22;;;15.23;100.00
25722;BME280;13578;53.450;15.496;2023-07-22T07:10:08;99354.91;;;15.48;100.00
25722;BME280;13578;53.450;15.496;2023-07-22T07:13:09;99360.00;;;15.28;100.00
25722;BME280;13578;53.450;15.496;2023-07-22T07:16:30;99377.03;;;15.00;100.00
25722;BME280;13578;53.450;15.496;2023-07-22T07:19:31;99377.75;;;15.02;100.00
25722;BME280;13578;53.450;15.496;2023-07-22T07:22:32;99385.56;;;15.30;100.00
25722;BME280;13578;53.450;15.496;2023-07-22T07:25:32;99388.97;;;15.49;100.00
25722;BME280;13578;53.450;15.496;2023-07-22T07:28:33;99392.31;;;15.67;100.00
25722;BME280;13578;53.450;15.496;2023-07-22T07:31:34;99401.44;;;16.08;100.00
25722;BME280;13578;53.450;15.496;2023-07-22T07:34:34;99410.06;;;15.81;100.00
25722;BME280;13578;53.450;15.496;2023-07-22T07:37:35;99404.84;;;15.55;100.00
25722;BME280;13578;53.450;15.496;2023-07-22T07:40:36;99415.13;;;16.01;100.00
25722;BME280;13578;53.450;15.496;2023-07-22T07:43:37;99417.75;;;16.26;100.00
25722;BME280;13578;53.450;15.496;2023-07-22T07:46:38;99427.06;;;16.48;100.00
25722;BME280;13578;53.450;15.496;2023-07-22T07:49:39;99425.47;;;16.54;100.00
25722;BME280;13578;53.450;15.496;2023-07-22T07:52:40;99423.56;;;16.92;100.00
25722;BME280;13578;53.450;15.496;2023-07-22T07:55:41;99416.25;;;17.29;100.00
25722;BME280;13578;53.450;15.496;2023-07-22T07:58:41;99415.66;;;17.34;100.00
25722;BME280;13578;53.450;15.496;2023-07-22T08:01:42;99414.13;;;17.46;100.00
25722;BME280;13578;53.450;15.496;2023-07-22T08:04:43;99418.13;;;17.59;100.00
25722;BME280;13578;53.450;15.496;2023-07-22T08:07:44;99418.34;;;17.27;100.00
25722;BME280;13578;53.450;15.496;2023-07-22T08:10:44;99414.81;;;16.80;100.00
25722;BME280;13578;53.450;15.496;2023-07-22T08:13:45;99414.34;;;16.39;100.00
25722;BME280;13578;53.450;15.496;2023-07-22T08:16:46;99422.50;;;16.55;100.00
25722;BME280;13578;53.450;15.496;2023-07-22T08:19:46;99427.69;;;16.96;100.00
25722;BME280;13578;53.450;15.496;2023-07-22T08:22:47;99418.63;;;17.03;100.00
25722;BME280;13578;53.450;15.496;2023-07-22T08:25:48;99422.66;;;17.15;100.00
25722;BME280;13578;53.450;15.496;2023-07-22T08:28:49;99420.44;;;17.10;100.00
25722;BME280;13578;53.450;15.496;2023-07-22T08:31:49;99426.84;;;16.96;100.00
25722;BME280;13578;53.450;15.496;2023-07-22T08:34:50;99432.28;;;17.04;100.00
25722;BME280;13578;53.450;15.496;2023-07-22T08:37:51;99431.25;;;17.35;100.00
25722;BME280;13578;53.450;15.496;2023-07-22T08:40:52;99426.47;;;17.14;100.00
25722;BME280;13578;53.450;15.496;2023-07-22T08:43:54;99423.81;;;16.82;100.00
25722;BME280;13578;53.450;15.496;2023-07-22T08:46:58;99422.38;;;16.72;100.00
25722;BME280;13578;53.450;15.496;2023-07-22T08:50:01;99440.88;;;16.71;100.00
25722;BME280;13578;53.450;15.496;2023-07-22T08:53:03;99441.56;;;16.73;100.00
25722;BME280;13578;53.450;15.496;2023-07-22T08:56:05;99434.34;;;16.87;100.00
25722;BME280;13578;53.450;15.496;2023-07-22T08:59:06;99435.16;;;16.96;100.00
25722;BME280;13578;53.450;15.496;2023-07-22T09:02:10;99443.75;;;17.01;100.00
25722;BME280;13578;53.450;15.496;2023-07-22T09:05:12;99434.22;;;17.19;100.00
25722;BME280;13578;53.450;15.496;2023-07-22T09:08:13;99435.34;;;17.09;100.00
25722;BME280;13578;53.450;15.496;2023-07-22T09:11:15;99444.56;;;16.87;100.00
25722;BME280;13578;53.450;15.496;2023-07-22T09:14:18;99442.50;;;16.65;100.00
25722;BME280;13578;53.450;15.496;2023-07-22T09:17:19;99454.91;;;16.93;100.00
25722;BME280;13578;53.450;15.496;2023-07-22T09:20:20;99450.34;;;17.75;100.00
25722;BME280;13578;53.450;15.496;2023-07-22T09:23:38;99439.50;;;18.32;100.00
25722;BME280;13578;53.450;15.496;2023-07-22T09:26:42;99428.84;;;18.35;100.00
25722;BME280;13578;53.450;15.496;2023-07-22T09:29:44;99431.34;;;17.93;100.00
25722;BME280;13578;53.450;15.496;2023-07-22T09:32:47;99429.09;;;17.82;100.00
25722;BME280;13578;53.450;15.496;2023-07-22T09:35:48;99422.59;;;17.75;100.00
25722;BME280;13578;53.450;15.496;2023-07-22T09:39:02;99426.13;;;17.99;100.00
25722;BME280;13578;53.450;15.496;2023-07-22T09:42:03;99423.81;;;18.02;100.00
25722;BME280;13578;53.450;15.496;2023-07-22T09:45:05;99423.44;;;17.90;100.00
25722;BME280;13578;53.450;15.496;2023-07-22T09:48:09;99420.88;;;17.74;100.00
25722;BME280;13578;53.450;15.496;2023-07-22T09:51:16;99433.31;;;17.78;100.00
25722;BME280;13578;53.450;15.496;2023-07-22T09:54:17;99435.22;;;17.62;100.00
25722;BME280;13578;53.450;15.496;2023-07-22T09:57:20;99439.16;;;17.68;100.00
25722;BME280;13578;53.450;15.496;2023-07-22T10:00:24;99442.47;;;18.08;100.00
25722;BME280;13578;53.450;15.496;2023-07-22T10:03:29;99444.59;;;18.50;100.00
25722;BME280;13578;53.450;15.496;2023-07-22T10:06:31;99411.59;;;18.90;100.00
25722;BME280;13578;53.450;15.496;2023-07-22T10:09:33;99429.16;;;18.69;100.00
25722;BME280;13578;53.450;15.496;2023-07-22T10:12:38;99406.44;;;18.37;100.00
25722;BME280;13578;53.450;15.496;2023-07-22T10:15:39;99425.75;;;18.23;100.00
25722;BME280;13578;53.450;15.496;2023-07-22T10:18:41;99429.06;;;18.12;100.00
25722;BME280;13578;53.450;15.496;2023-07-22T10:21:46;99425.34;;;18.27;100.00
25722;BME280;13578;53.450;15.496;2023-07-22T10:24:48;99434.06;;;18.23;100.00
25722;BME280;13578;53.450;15.496;2023-07-22T10:27:51;99434.34;;;18.29;100.00
25722;BME280;13578;53.450;15.496;2023-07-22T10:30:52;99431.09;;;18.25;100.00
25722;BME280;13578;53.450;15.496;2023-07-22T10:33:53;99425.75;;;18.23;100.00
25722;BME280;13578;53.450;15.496;2023-07-22T10:36:56;99422.97;;;18.23;100.00
25722;BME280;13578;53.450;15.496;2023-07-22T10:43:32;99428.38;;;18.10;100.00
25722;BME280;13578;53.450;15.496;2023-07-22T10:46:38;99424.16;;;18.57;100.00
25722;BME280;13578;53.450;15.496;2023-07-22T10:49:46;99424.06;;;19.23;100.00
25722;BME280;13578;53.450;15.496;2023-07-22T10:52:47;99449.09;;;19.64;100.00
25722;BME280;13578;53.450;15.496;2023-07-22T10:59:10;99440.41;;;19.39;100.00
25722;BME280;13578;53.450;15.496;2023-07-22T11:02:23;99436.09;;;19.30;100.00
25722;BME280;13578;53.450;15.496;2023-07-22T11:05:48;99441.81;;;19.28;100.00
25722;BME280;13578;53.450;15.496;2023-07-22T11:08:49;99413.75;;;19.16;98.78
25722;BME280;13578;53.450;15.496;2023-07-22T11:11:57;99426.00;;;18.94;100.00
25722;BME280;13578;53.450;15.496;2023-07-22T11:15:04;99444.69;;;18.56;100.00
25722;BME280;13578;53.450;15.496;2023-07-22T11:18:06;99452.84;;;18.43;100.00
25722;BME280;13578;53.450;15.496;2023-07-22T11:21:11;99465.09;;;18.92;100.00
25722;BME280;13578;53.450;15.496;2023-07-22T11:24:12;99454.41;;;19.52;100.00
25722;BME280;13578;53.450;15.496;2023-07-22T11:27:12;99442.53;;;19.79;100.00
25722;BME280;13578;53.450;15.496;2023-07-22T11:30:13;99435.00;;;19.73;100.00
25722;BME280;13578;53.450;15.496;2023-07-22T11:33:14;99441.13;;;19.19;100.00
25722;BME280;13578;53.450;15.496;2023-07-22T11:36:14;99435.66;;;18.76;100.00
25722;BME280;13578;53.450;15.496;2023-07-22T11:39:17;99428.59;;;18.52;100.00
25722;BME280;13578;53.450;15.496;2023-07-22T11:42:18;99449.94;;;18.51;100.00
25722;BME280;13578;53.450;15.496;2023-07-22T11:45:18;99438.69;;;18.60;100.00
25722;BME280;13578;53.450;15.496;2023-07-22T11:48:19;99442.28;;;18.53;100.00
25722;BME280;13578;53.450;15.496;2023-07-22T11:51:22;99451.66;;;18.52;100.00
25722;BME280;13578;53.450;15.496;2023-07-22T11:54:24;99454.56;;;18.66;100.00
25722;BME280;13578;53.450;15.496;2023-07-22T11:57:25;99441.88;;;19.00;100.00
25722;BME280;13578;53.450;15.496;2023-07-22T12:00:25;99450.34;;;18.92;100.00
25722;BME280;13578;53.450;15.496;2023-07-22T12:03:31;99451.44;;;19.26;100.00
25722;BME280;13578;53.450;15.496;2023-07-22T12:06:31;99437.69;;;19.88;100.00
25722;BME280;13578;53.450;15.496;2023-07-22T12:09:32;99441.47;;;19.80;100.00
25722;BME280;13578;53.450;15.496;2023-07-22T12:12:45;99458.88;;;19.53;100.00
25722;BME280;13578;53.450;15.496;2023-07-22T12:16:02;99446.03;;;19.17;100.00
25722;BME280;13578;53.450;15.496;2023-07-22T12:19:04;99451.75;;;19.79;100.00
25722;BME280;13578;53.450;15.496;2023-07-22T12:22:04;99439.44;;;20.02;98.15
25722;BME280;13578;53.450;15.496;2023-07-22T12:25:06;99433.13;;;20.42;98.38
25722;BME280;13578;53.450;15.496;2023-07-22T12:28:06;99440.50;;;20.01;95.55
25722;BME280;13578;53.450;15.496;2023-07-22T12:31:08;99420.84;;;20.09;90.50
25722;BME280;13578;53.450;15.496;2023-07-22T12:34:09;99412.69;;;19.59;87.70
25722;BME280;13578;53.450;15.496;2023-07-22T12:37:10;99399.66;;;19.60;82.33
25722;BME280;13578;53.450;15.496;2023-07-22T12:40:11;99391.69;;;19.98;80.31
25722;BME280;13578;53.450;15.496;2023-07-22T12:43:12;99398.81;;;20.61;78.72
25722;BME280;13578;53.450;15.496;2023-07-22T12:46:13;99397.56;;;20.57;77.21
25722;BME280;13578;53.450;15.496;2023-07-22T12:49:13;99386.59;;;20.42;73.51
25722;BME280;13578;53.450;15.496;2023-07-22T12:52:14;99359.16;;;20.66;64.99
25722;BME280;13578;53.450;15.496;2023-07-22T12:55:15;99349.94;;;20.59;61.85
25722;BME280;13578;53.450;15.496;2023-07-22T12:58:15;99385.78;;;20.89;67.60
25722;BME280;13578;53.450;15.496;2023-07-22T13:01:16;99359.41;;;20.78;60.55
25722;BME280;13578;53.450;15.496;2023-07-22T13:04:17;99360.91;;;20.54;62.32
25722;BME280;13578;53.450;15.496;2023-07-22T13:07:17;99362.19;;;20.78;59.16
25722;BME280;13578;53.450;15.496;2023-07-22T13:10:18;99385.78;;;20.89;63.85
25722;BME280;13578;53.450;15.496;2023-07-22T13:13:20;99397.59;;;20.91;65.19
25722;BME280;13578;53.450;15.496;2023-07-22T13:16:21;99412.97;;;20.33;71.13
25722;BME280;13578;53.450;15.496;2023-07-22T13:19:21;99423.25;;;20.39;72.88
25722;BME280;13578;53.450;15.496;2023-07-22T13:22:22;99406.53;;;20.39;72.30
25722;BME280;13578;53.450;15.496;2023-07-22T13:25:23;99398.41;;;20.71;68.81
25722;BME280;13578;53.450;15.496;2023-07-22T13:28:24;99427.59;;;20.82;73.72
25722;BME280;13578;53.450;15.496;2023-07-22T13:31:25;99401.44;;;20.83;68.76
25722;BME280;13578;53.450;15.496;2023-07-22T13:34:25;99404.00;;;20.98;68.07
25722;BME280;13578;53.450;15.496;2023-07-22T13:37:26;99403.06;;;21.31;64.96
25722;BME280;13578;53.450;15.496;2023-07-22T13:40:27;99382.75;;;21.10;62.39
25722;BME280;13578;53.450;15.496;2023-07-22T13:43:27;99391.72;;;21.26;63.62
25722;BME280;13578;53.450;15.496;2023-07-22T13:46:28;99420.69;;;21.32;64.21
25722;BME280;13578;53.450;15.496;2023-07-22T13:49:29;99407.34;;;21.34;64.03
25722;BME280;13578;53.450;15.496;2023-07-22T13:52:29;99387.53;;;21.55;60.55
25722;BME280;13578;53.450;15.496;2023-07-22T13:55:30;99404.97;;;21.51;61.81
25722;BME280;13578;53.450;15.496;2023-07-22T13:58:31;99415.06;;;21.58;63.05
25722;BME280;13578;53.450;15.496;2023-07-22T14:01:32;99418.19;;;20.76;61.95
25722;BME280;13578;53.450;15.496;2023-07-22T14:04:33;99426.22;;;20.24;62.48
25722;BME280;13578;53.450;15.496;2023-07-22T14:07:35;99433.44;;;19.98;66.71
25722;BME280;13578;53.450;15.496;2023-07-22T14:10:36;99440.28;;;19.96;66.66
25722;BME280;13578;53.450;15.496;2023-07-22T14:13:36;99428.47;;;19.87;65.97
25722;BME280;13578;53.450;15.496;2023-07-22T14:16:37;99447.16;;;19.93;66.85
25722;BME280;13578;53.450;15.496;2023-07-22T14:19:37;99446.31;;;20.06;67.99
25722;BME280;13578;53.450;15.496;2023-07-22T14:22:38;99456.59;;;20.06;69.96
25722;BME280;13578;53.450;15.496;2023-07-22T14:25:39;99434.06;;;19.94;67.65
25722;BME280;13578;53.450;15.496;2023-07-22T14:28:39;99436.47;;;20.17;67.53
25722;BME280;13578;53.450;15.496;2023-07-22T14:31:42;99426.28;;;20.71;65.07
25722;BME280;13578;53.450;15.496;2023-07-22T14:34:43;99443.91;;;20.99;68.18
25722;BME280;13578;53.450;15.496;2023-07-22T14:37:43;99426.66;;;21.42;63.63
25722;BME280;13578;53.450;15.496;2023-07-22T14:40:45;99408.88;;;21.23;60.93
25722;BME280;13578;53.450;15.496;2023-07-22T14:43:46;99426.09;;;20.93;62.33
25722;BME280;13578;53.450;15.496;2023-07-22T14:46:46;99429.28;;;20.56;61.26
25722;BME280;13578;53.450;15.496;2023-07-22T14:49:47;99437.81;;;20.35;62.26
25722;BME280;13578;53.450;15.496;2023-07-22T14:52:48;99490.28;;;20.18;87.04
25722;BME280;13578;53.450;15.496;2023-07-22T14:55:48;99503.44;;;19.89;94.97
25722;BME280;13578;53.450;15.496;2023-07-22T14:58:49;99506.09;;;19.75;100.00
25722;BME280;13578;53.450;15.496;2023-07-22T15:01:50;99503.69;;;19.94;100.00
25722;BME280;13578;53.450;15.496;2023-07-22T15:04:50;99511.28;;;20.20;100.00
25722;BME280;13578;53.450;15.496;2023-07-22T15:07:51;99488.53;;;20.03;100.00
25722;BME280;13578;53.450;15.496;2023-07-22T15:10:51;99499.06;;;19.79;100.00
25722;BME280;13578;53.450;15.496;2023-07-22T15:13:52;99496.22;;;19.66;100.00
25722;BME280;13578;53.450;15.496;2023-07-22T15:16:53;99487.59;;;19.61;100.00
25722;BME280;13578;53.450;15.496;2023-07-22T15:19:53;99503.16;;;19.83;100.00
25722;BME280;13578;53.450;15.496;2023-07-22T15:22:54;99492.16;;;20.04;100.00
25722;BME280;13578;53.450;15.496;2023-07-22T15:25:55;99483.22;;;20.22;100.00
25722;BME280;13578;53.450;15.496;2023-07-22T15:28:55;99481.13;;;20.37;100.00
25722;BME280;13578;53.450;15.496;2023-07-22T15:31:56;99470.00;;;20.44;92.07
25722;BME280;13578;53.450;15.496;2023-07-22T15:34:56;99476.84;;;20.41;90.60
25722;BME280;13578;53.450;15.496;2023-07-22T15:37:57;99449.81;;;20.35;79.58
25722;BME280;13578;53.450;15.496;2023-07-22T15:40:58;99442.97;;;20.44;80.12
25722;BME280;13578;53.450;15.496;2023-07-22T15:43:58;99458.59;;;20.39;82.95
25722;BME280;13578;53.450;15.496;2023-07-22T15:46:59;99460.94;;;20.22;84.66